Time;durP1;ratioP1;P1;durP2;ratioP2;P2;SDS_P1;SDS_P2;PMS_P1;PMS_P2;Temp;Humidity;BMP_temperature;BMP_pressure;BME280_temperature;BME280_humidity;BME280_pressure;Samples;Min_cycle;Max_cycle;Signal;HPM_P1;HPM_P2
2022/06/02 00:03:26;;;;;;;11.45;6.93;;;13.70;73.00;;;;;;2355967;57;22540;-73
2022/06/02 00:06:06;;;;;;;8.48;6.80;;;13.70;73.10;;;;;;2346630;57;21061;-72
2022/06/02 00:08:49;;;;;;;9.32;6.57;;;13.70;73.10;;;;;;2362671;56;21114;-72
2022/06/02 00:11:29;;;;;;;10.60;6.87;;;13.70;73.20;;;;;;2375848;56;21094;-72
2022/06/02 00:14:10;;;;;;;12.23;7.75;;;13.60;73.10;;;;;;2375405;56;21051;-73
2022/06/02 00:16:48;;;;;;;11.02;6.85;;;13.60;73.00;;;;;;2375132;56;21082;-73
2022/06/02 00:19:28;;;;;;;9.02;6.12;;;13.60;73.10;;;;;;2374772;56;21058;-73
2022/06/02 00:22:02;;;;;;;13.93;6.30;;;13.60;73.30;;;;;;2374258;56;21122;-73
2022/06/02 00:24:37;;;;;;;10.10;6.82;;;13.50;73.00;;;;;;2375549;56;21115;-72
2022/06/02 00:27:14;;;;;;;10.43;7.35;;;13.60;73.00;;;;;;2628730;52;21047;-72
2022/06/02 00:29:50;;;;;;;9.48;6.82;;;13.50;72.90;;;;;;2375563;56;21039;-73
2022/06/02 00:32:24;;;;;;;10.88;7.10;;;13.50;73.00;;;;;;2375338;56;21043;-72
2022/06/02 00:37:41;;;;;;;9.32;6.62;;;13.40;72.70;;;;;;2352219;57;22074;-72
2022/06/02 00:40:11;;;;;;;9.85;6.65;;;13.40;72.70;;;;;;2347662;57;21053;-72
2022/06/02 00:42:53;;;;;;;10.75;7.47;;;13.40;72.70;;;;;;2347856;57;21045;-72
2022/06/02 00:45:21;;;;;;;11.15;7.07;;;13.40;72.80;;;;;;2347152;57;21033;-72
2022/06/02 00:47:55;;;;;;;10.75;7.75;;;13.40;72.80;;;;;;2347869;57;21192;-72
2022/06/02 00:50:48;;;;;;;9.57;6.85;;;13.30;72.80;;;;;;2347115;57;21101;-72
2022/06/02 00:53:27;;;;;;;8.48;6.20;;;13.30;73.00;;;;;;2347359;57;21050;-72
2022/06/02 00:59:04;;;;;;;9.07;6.30;;;13.30;72.80;;;;;;2347583;57;21528;-72
2022/06/02 01:01:34;;;;;;;10.20;8.05;;;13.30;72.70;;;;;;2347454;57;21053;-72
2022/06/02 01:04:05;;;;;;;10.88;7.85;;;13.30;72.70;;;;;;2347895;57;21113;-72
2022/06/02 01:07:05;;;;;;;12.00;7.35;;;13.20;72.70;;;;;;2347674;57;21117;-72
2022/06/02 01:12:59;;;;;;;10.93;8.40;;;13.20;72.70;;;;;;2356192;57;22481;-72
2022/06/02 01:15:39;;;;;;;10.98;8.00;;;13.20;72.60;;;;;;2594697;53;21053;-72
2022/06/02 01:18:17;;;;;;;13.05;8.30;;;13.10;72.60;;;;;;2357349;56;21043;-72
2022/06/02 01:21:03;;;;;;;11.73;8.13;;;13.10;72.60;;;;;;2375004;56;21448;-72
2022/06/02 01:24:05;;;;;;;12.27;8.10;;;13.10;72.70;;;;;;2375458;56;21525;-72
2022/06/02 01:26:57;;;;;;;13.48;8.50;;;13.10;72.70;;;;;;2374657;56;21138;-72
2022/06/02 01:29:51;;;;;;;13.52;8.82;;;13.00;72.60;;;;;;2375401;56;21098;-72
2022/06/02 01:32:25;;;;;;;13.23;9.10;;;13.00;72.70;;;;;;2375221;56;21113;-72
2022/06/02 01:35:01;;;;;;;12.30;8.60;;;13.00;72.70;;;;;;2375196;56;21023;-72
2022/06/02 01:37:37;;;;;;;13.50;9.38;;;13.00;73.00;;;;;;2374862;56;21038;-72
2022/06/02 01:40:17;;;;;;;13.62;9.80;;;12.90;73.00;;;;;;2628959;52;21046;-72
2022/06/02 01:42:54;;;;;;;14.18;9.45;;;12.90;73.10;;;;;;2375050;56;21071;-72
2022/06/02 01:45:35;;;;;;;12.50;9.02;;;12.80;73.10;;;;;;2374445;56;21609;-72
2022/06/02 01:48:10;;;;;;;18.17;10.23;;;12.90;73.10;;;;;;2375305;56;21106;-72
2022/06/02 01:50:49;;;;;;;14.30;9.32;;;12.90;73.10;;;;;;2375246;56;21376;-72
2022/06/02 01:53:24;;;;;;;13.98;10.50;;;12.80;73.20;;;;;;2374333;56;21039;-72
2022/06/02 01:56:09;;;;;;;13.10;9.43;;;12.80;73.50;;;;;;2374963;56;21050;-72
2022/06/02 01:59:07;;;;;;;16.83;10.40;;;12.80;73.50;;;;;;2375018;56;21114;-72
2022/06/02 02:01:44;;;;;;;16.40;10.93;;;12.80;73.60;;;;;;2375483;56;21030;-72
2022/06/02 02:04:33;;;;;;;14.98;10.88;;;12.70;73.50;;;;;;2375320;56;21181;-72
2022/06/02 02:07:12;;;;;;;12.45;8.45;;;12.70;73.40;;;;;;2375236;56;21090;-72
2022/06/02 02:09:51;;;;;;;16.67;10.45;;;12.70;73.50;;;;;;2374337;56;21054;-72
2022/06/02 02:12:23;;;;;;;15.77;10.77;;;12.70;73.50;;;;;;2375035;56;21051;-72
2022/06/02 02:15:03;;;;;;;12.90;9.18;;;12.70;73.40;;;;;;2374874;56;21039;-72
2022/06/02 02:18:03;;;;;;;16.98;11.02;;;12.60;73.60;;;;;;2374993;56;21094;-72
2022/06/02 02:20:35;;;;;;;14.40;9.95;;;12.60;73.60;;;;;;2375129;56;21035;-74
2022/06/02 02:23:09;;;;;;;17.33;11.50;;;12.60;73.50;;;;;;2628350;52;21110;-74
2022/06/02 02:25:44;;;;;;;17.10;10.88;;;12.60;73.70;;;;;;2373432;56;21034;-75
2022/06/02 02:28:19;;;;;;;15.40;9.45;;;12.60;73.70;;;;;;2373884;56;21118;-74
2022/06/02 02:31:05;;;;;;;14.15;10.13;;;12.50;73.70;;;;;;2374412;56;21110;-75
2022/06/02 02:33:44;;;;;;;14.73;10.13;;;12.50;73.70;;;;;;2373622;56;21051;-74
2022/06/02 02:36:19;;;;;;;14.38;10.95;;;12.50;73.70;;;;;;2374012;56;21039;-74
2022/06/02 02:38:59;;;;;;;15.25;10.50;;;12.50;73.60;;;;;;2374155;56;21035;-74
2022/06/02 02:41:33;;;;;;;14.80;11.07;;;12.40;73.60;;;;;;2374467;56;21058;-74
2022/06/02 02:44:06;;;;;;;12.82;9.30;;;12.50;73.70;;;;;;2373917;56;21078;-74
2022/06/02 02:46:41;;;;;;;14.10;10.43;;;12.40;73.70;;;;;;2373952;56;21043;-74
2022/06/02 02:49:14;;;;;;;15.65;10.48;;;12.40;73.60;;;;;;2374355;56;21118;-75
2022/06/02 02:51:51;;;;;;;14.82;10.20;;;12.40;73.50;;;;;;2374126;56;21051;-75
2022/06/02 02:54:23;;;;;;;15.82;11.15;;;12.40;73.70;;;;;;2627527;52;21046;-75
2022/06/02 02:56:57;;;;;;;14.55;9.80;;;12.40;73.60;;;;;;2373821;56;21561;-75
2022/06/02 02:59:32;;;;;;;15.02;10.48;;;12.40;73.60;;;;;;2374308;56;21047;-75
2022/06/02 03:02:13;;;;;;;15.68;10.10;;;12.30;73.50;;;;;;2374203;56;21102;-73
2022/06/02 03:04:53;;;;;;;16.02;9.77;;;12.40;73.60;;;;;;2374314;56;21209;-73
2022/06/02 03:07:21;;;;;;;15.85;10.23;;;12.40;73.30;;;;;;2373503;56;21058;-73
2022/06/02 03:10:07;;;;;;;15.20;10.05;;;12.30;73.30;;;;;;2374108;56;21074;-74
2022/06/02 03:13:03;;;;;;;14.52;10.00;;;12.30;73.60;;;;;;2374035;56;21035;-73
2022/06/02 03:15:37;;;;;;;12.45;8.65;;;12.30;73.50;;;;;;2373571;56;21031;-73
2022/06/02 03:18:27;;;;;;;12.93;10.15;;;12.30;74.20;;;;;;2374182;56;21047;-73
2022/06/02 03:20:58;;;;;;;14.90;9.32;;;12.30;73.40;;;;;;2374110;56;21035;-73
2022/06/02 03:23:43;;;;;;;15.27;10.00;;;12.30;73.10;;;;;;2373567;56;21047;-73
2022/06/02 03:26:21;;;;;;;16.48;10.15;;;12.30;72.90;;;;;;2373600;56;21094;-73
2022/06/02 03:28:58;;;;;;;16.80;9.52;;;12.30;72.90;;;;;;2374228;56;21118;-73
2022/06/02 03:31:34;;;;;;;13.93;10.00;;;12.20;73.80;;;;;;2374457;56;21043;-73
2022/06/02 03:34:12;;;;;;;11.43;8.57;;;12.20;73.30;;;;;;2374378;56;21039;-73
2022/06/02 03:37:04;;;;;;;13.05;8.82;;;12.20;73.40;;;;;;2374278;56;21046;-73
2022/06/02 03:39:45;;;;;;;13.32;9.15;;;12.20;73.30;;;;;;2373806;56;21039;-73
2022/06/02 03:42:22;;;;;;;11.68;8.18;;;12.20;73.30;;;;;;2374492;56;21130;-73
2022/06/02 03:45:02;;;;;;;12.93;8.63;;;12.20;73.60;;;;;;2373215;56;21035;-74
2022/06/02 03:50:35;;;;;;;11.48;8.18;;;12.20;74.20;;;;;;2301085;58;22556;-73
2022/06/02 03:53:22;;;;;;;13.35;9.05;;;12.20;74.40;;;;;;2319766;58;21056;-73
2022/06/02 03:56:01;;;;;;;14.87;9.50;;;12.20;74.40;;;;;;2318308;58;21040;-72
2022/06/02 03:58:43;;;;;;;13.30;9.10;;;12.20;74.50;;;;;;2318982;58;21037;-72
2022/06/02 04:01:17;;;;;;;12.10;7.80;;;12.20;74.60;;;;;;2318699;58;21112;-72
2022/06/02 04:04:01;;;;;;;11.93;8.38;;;12.20;74.60;;;;;;2318546;58;21179;-72
2022/06/02 04:06:44;;;;;;;13.73;9.77;;;12.20;74.50;;;;;;2330389;55;21095;-74
2022/06/02 04:09:31;;;;;;;13.52;9.75;;;12.20;74.60;;;;;;2244001;60;21061;-74
2022/06/02 04:15:35;;;;;;;13.85;8.77;;;12.20;74.50;;;;;;2210238;60;21133;-73
2022/06/02 04:18:13;;;;;;;11.35;7.85;;;12.30;74.50;;;;;;2248671;60;21121;-73
2022/06/02 04:23:39;;;;;;;12.48;8.93;;;12.30;74.70;;;;;;2353162;57;22881;-74
2022/06/02 04:26:22;;;;;;;9.98;7.60;;;12.30;75.10;;;;;;2344860;57;21132;-75
2022/06/02 04:28:57;;;;;;;12.45;8.20;;;12.30;75.10;;;;;;2364028;56;21046;-75
2022/06/02 04:31:37;;;;;;;12.60;8.77;;;12.40;75.50;;;;;;2372657;56;21037;-75
2022/06/02 04:34:14;;;;;;;11.45;8.05;;;12.40;75.90;;;;;;2373713;56;21031;-75
2022/06/02 04:36:50;;;;;;;10.98;7.40;;;12.40;76.10;;;;;;2373310;56;21039;-75
2022/06/02 04:39:26;;;;;;;12.77;8.50;;;12.50;75.70;;;;;;2373571;56;21112;-75
2022/06/02 04:42:01;;;;;;;11.23;7.37;;;12.60;76.00;;;;;;2373821;56;21593;-75
2022/06/02 04:44:38;;;;;;;12.15;8.23;;;12.60;76.00;;;;;;2373686;56;21102;-75
2022/06/02 04:47:18;;;;;;;14.98;7.85;;;12.70;76.10;;;;;;2373074;56;21094;-75
2022/06/02 04:49:55;;;;;;;10.07;7.32;;;12.70;76.10;;;;;;2373418;56;21085;-75
2022/06/02 04:52:29;;;;;;;13.25;7.97;;;12.70;75.80;;;;;;2373665;56;21043;-75
2022/06/02 04:55:05;;;;;;;12.73;8.55;;;12.80;75.80;;;;;;2373758;56;21031;-75
2022/06/02 04:57:44;;;;;;;11.35;7.57;;;12.80;76.00;;;;;;2373480;56;21106;-75
2022/06/02 05:00:20;;;;;;;11.07;6.45;;;12.90;76.20;;;;;;2373765;56;21106;-75
2022/06/02 05:02:57;;;;;;;11.20;7.32;;;13.00;75.70;;;;;;2372962;56;21043;-75
2022/06/02 05:05:33;;;;;;;11.90;7.55;;;13.00;75.10;;;;;;2373705;56;21051;-75
2022/06/02 05:11:17;;;;;;;11.45;7.93;;;13.10;75.20;;;;;;2327355;57;22677;-74
2022/06/02 05:13:55;;;;;;;12.40;8.50;;;13.10;75.30;;;;;;2319317;58;21080;-74
2022/06/02 05:16:30;;;;;;;12.70;7.70;;;13.20;75.00;;;;;;2319219;58;22204;-73
2022/06/02 05:19:46;;;;;;;14.02;8.27;;;13.20;74.60;;;;;;2337056;57;21053;-73
2022/06/02 05:25:35;;;;;;;10.80;8.23;;;13.20;74.90;;;;;;2356039;57;22492;-74
2022/06/02 05:31:58;;;;;;;12.57;7.55;;;13.30;75.20;;;;;;2356410;57;22521;-73
2022/06/02 05:35:09;;;;;;;14.32;7.07;;;13.30;74.40;;;;;;2336021;57;21061;-73
2022/06/02 05:37:51;;;;;;;7.68;6.12;;;13.40;74.60;;;;;;2350349;56;21153;-74
2022/06/02 05:40:26;;;;;;;12.32;7.03;;;13.40;74.70;;;;;;2375281;56;21046;-73
2022/06/02 05:43:05;;;;;;;13.02;8.73;;;13.50;74.90;;;;;;2375456;56;21054;-73
2022/06/02 05:45:47;;;;;;;11.27;7.70;;;13.50;75.10;;;;;;2375042;56;21030;-73
2022/06/02 05:48:34;;;;;;;12.00;7.05;;;13.60;74.90;;;;;;2375470;56;21094;-73
2022/06/02 05:51:08;;;;;;;13.68;6.87;;;13.60;74.40;;;;;;2374991;56;21125;-73
2022/06/02 05:53:50;;;;;;;8.85;7.40;;;13.60;74.40;;;;;;2374275;56;21074;-73
2022/06/02 05:56:27;;;;;;;10.98;6.90;;;13.70;74.70;;;;;;2374664;56;21172;-73
2022/06/02 05:59:14;;;;;;;14.35;7.62;;;13.70;74.80;;;;;;2375038;56;21114;-73
2022/06/02 06:01:59;;;;;;;11.07;6.75;;;13.70;74.80;;;;;;2375241;56;21015;-74
2022/06/02 06:04:46;;;;;;;11.43;6.55;;;13.80;74.90;;;;;;2375524;56;21051;-73
2022/06/02 06:07:20;;;;;;;13.70;6.82;;;13.70;74.30;;;;;;2374847;56;21035;-73
2022/06/02 06:09:57;;;;;;;8.60;6.78;;;13.80;74.40;;;;;;2374817;56;21098;-73
2022/06/02 06:12:47;;;;;;;13.45;6.72;;;13.80;74.80;;;;;;2375247;56;21019;-73
2022/06/02 06:15:23;;;;;;;9.98;6.25;;;13.80;75.00;;;;;;2375134;56;21055;-73
2022/06/02 06:18:02;;;;;;;11.05;6.45;;;13.80;74.90;;;;;;2375110;56;21054;-73
2022/06/02 06:20:50;;;;;;;10.02;6.62;;;13.90;75.40;;;;;;2375388;56;21039;-73
2022/06/02 06:23:48;;;;;;;10.60;6.47;;;13.90;75.30;;;;;;2374778;56;21055;-73
2022/06/02 06:26:46;;;;;;;8.60;5.90;;;13.90;75.80;;;;;;2373704;56;21050;-74
2022/06/02 06:29:27;;;;;;;11.70;6.07;;;14.00;76.00;;;;;;2374996;56;21035;-74
2022/06/02 06:32:07;;;;;;;11.80;5.93;;;14.10;76.10;;;;;;2375431;56;21020;-73
2022/06/02 06:34:45;;;;;;;12.80;5.72;;;14.10;75.10;;;;;;2375401;56;21039;-74
2022/06/02 06:37:45;;;;;;;7.90;4.78;;;14.20;75.30;;;;;;2374923;56;21091;-73
2022/06/02 06:40:28;;;;;;;6.22;4.75;;;14.30;75.60;;;;;;2374930;56;21114;-73
2022/06/02 06:43:05;;;;;;;8.30;4.70;;;14.30;75.60;;;;;;2373111;56;21050;-73
2022/06/02 06:45:39;;;;;;;6.93;4.78;;;14.30;75.20;;;;;;2373550;56;21090;-74
2022/06/02 06:48:13;;;;;;;5.45;4.32;;;14.40;75.30;;;;;;2373474;56;21039;-74
2022/06/02 06:50:50;;;;;;;5.60;3.78;;;14.40;75.50;;;;;;2373368;56;21197;-73
2022/06/02 06:53:30;;;;;;;8.35;4.30;;;14.50;74.50;;;;;;2373499;56;21522;-74
2022/06/02 06:56:09;;;;;;;5.57;3.85;;;14.50;74.50;;;;;;2373878;56;21028;-74
2022/06/02 06:58:49;;;;;;;7.50;4.22;;;14.60;74.80;;;;;;2373633;56;21114;-74
2022/06/02 07:01:26;;;;;;;6.87;4.20;;;14.60;74.50;;;;;;2374186;56;21102;-73
2022/06/02 07:04:06;;;;;;;6.62;3.60;;;14.60;75.10;;;;;;2374589;56;21113;-74
2022/06/02 07:06:46;;;;;;;5.57;3.30;;;14.70;75.00;;;;;;2372217;56;21039;-73
2022/06/02 07:09:23;;;;;;;5.65;3.90;;;14.80;73.90;;;;;;2371501;56;22571;-74
2022/06/02 07:14:50;;;;;;;7.62;3.87;;;14.90;72.50;;;;;;2371773;56;21039;-73
2022/06/02 07:17:24;;;;;;;4.37;3.55;;;14.90;72.80;;;;;;2373210;56;21106;-73
2022/06/02 07:19:59;;;;;;;7.97;3.70;;;14.90;73.70;;;;;;2373508;56;21122;-73
2022/06/02 07:22:36;;;;;;;6.18;3.62;;;15.00;73.60;;;;;;2373421;56;21643;-74
2022/06/02 07:25:13;;;;;;;5.03;3.35;;;15.00;72.80;;;;;;2373545;56;21098;-73
2022/06/02 07:27:49;;;;;;;7.22;4.78;;;15.00;72.60;;;;;;2372667;56;21662;-73
2022/06/02 07:30:32;;;;;;;8.40;4.10;;;15.00;72.70;;;;;;2373552;56;21055;-73
2022/06/02 07:33:28;;;;;;;9.35;4.18;;;14.90;72.20;;;;;;2626605;52;21051;-73
2022/06/02 07:36:26;;;;;;;6.47;3.83;;;14.90;73.00;;;;;;2373429;56;21035;-74
2022/06/02 07:39:29;;;;;;;6.35;3.40;;;15.00;73.20;;;;;;2372851;56;21027;-73
2022/06/02 07:42:27;;;;;;;6.28;3.47;;;15.00;73.30;;;;;;2374367;56;21047;-73
2022/06/02 07:45:20;;;;;;;4.80;3.33;;;15.10;73.00;;;;;;2374413;56;21296;-73
2022/06/02 07:48:06;;;;;;;4.30;3.35;;;15.10;72.80;;;;;;2373253;56;21035;-73
2022/06/02 07:50:35;;;;;;;4.70;3.40;;;15.10;73.10;;;;;;2374018;56;21055;-73
2022/06/02 07:53:13;;;;;;;5.75;3.55;;;15.00;72.90;;;;;;2374148;56;21031;-72
2022/06/02 07:55:51;;;;;;;6.40;3.20;;;15.00;73.50;;;;;;2374001;56;21031;-73
2022/06/02 07:58:29;;;;;;;5.65;3.25;;;15.00;73.80;;;;;;2374245;56;21043;-74
2022/06/02 08:01:01;;;;;;;6.87;3.75;;;15.00;74.00;;;;;;2374258;56;21051;-74
2022/06/02 08:04:00;;;;;;;9.30;3.30;;;15.10;74.10;;;;;;2374446;56;21102;-74
2022/06/02 08:06:36;;;;;;;4.45;2.85;;;15.00;73.80;;;;;;2372604;56;21113;-74
2022/06/02 08:09:41;;;;;;;6.62;2.45;;;15.00;73.10;;;;;;2374243;56;21055;-73
2022/06/02 08:12:20;;;;;;;4.70;2.85;;;15.00;73.10;;;;;;2373249;56;21051;-74
2022/06/02 08:14:58;;;;;;;5.70;2.80;;;15.00;73.20;;;;;;2374437;56;21177;-74
2022/06/02 08:17:33;;;;;;;4.05;2.80;;;15.00;73.40;;;;;;2373976;56;21051;-74
2022/06/02 08:20:24;;;;;;;4.28;2.95;;;15.00;73.80;;;;;;2374394;56;21110;-74
2022/06/02 08:22:59;;;;;;;5.70;3.45;;;15.00;74.00;;;;;;2373076;56;21040;-74
2022/06/02 08:25:35;;;;;;;5.82;2.95;;;15.00;74.10;;;;;;2374033;56;21117;-73
2022/06/02 08:28:17;;;;;;;8.52;3.97;;;14.90;73.50;;;;;;2374345;56;21023;-73
2022/06/02 08:30:50;;;;;;;5.62;3.12;;;14.90;73.80;;;;;;2374095;56;21529;-74
2022/06/02 08:36:17;;;;;;;7.82;3.45;;;14.90;74.90;;;;;;2355984;57;22497;-74
2022/06/02 08:39:04;;;;;;;6.62;3.37;;;15.00;74.90;;;;;;2364596;56;21110;-73
2022/06/02 08:42:20;;;;;;;6.70;3.95;;;15.00;74.60;;;;;;2373998;56;21526;-74
2022/06/02 08:45:32;;;;;;;4.85;3.22;;;15.20;74.10;;;;;;2375465;56;21066;-74
2022/06/02 08:48:33;;;;;;;8.40;3.80;;;15.20;74.10;;;;;;2348689;56;21110;-74
2022/06/02 08:51:40;;;;;;;4.80;2.90;;;15.30;74.00;;;;;;2375261;56;21115;-75
2022/06/02 08:55:02;;;;;;;6.15;3.47;;;15.40;74.10;;;;;;2375299;56;21043;-74
2022/06/02 08:58:04;;;;;;;7.37;3.50;;;15.50;74.40;;;;;;2374239;56;21118;-73
2022/06/02 09:00:45;;;;;;;6.57;3.33;;;15.50;73.80;;;;;;2324136;56;21106;-74
2022/06/02 09:03:55;;;;;;;4.28;3.62;;;15.50;73.40;;;;;;2629246;52;21040;-73
2022/06/02 09:07:10;;;;;;;4.60;3.20;;;15.60;72.70;;;;;;2373554;56;21102;-74
2022/06/02 09:10:14;;;;;;;8.77;3.20;;;15.70;73.50;;;;;;2326421;56;21525;-74
2022/06/02 09:13:10;;;;;;;7.60;3.40;;;15.70;73.00;;;;;;2375241;56;21209;-75
2022/06/02 09:16:01;;;;;;;9.05;3.60;;;15.70;72.40;;;;;;2375007;56;21110;-75
2022/06/02 09:22:12;;;;;;;8.25;3.47;;;15.90;73.00;;;;;;2356371;57;22537;-74
2022/06/02 09:24:47;;;;;;;4.37;2.78;;;15.90;72.40;;;;;;2346327;57;21065;-74
2022/06/02 09:30:30;;;;;;;5.10;2.87;;;16.00;71.80;;;;;;2356337;57;22532;-74
2022/06/02 09:36:13;;;;;;;5.35;2.60;;;16.00;71.70;;;;;;2347272;57;21061;-74
2022/06/02 09:38:54;;;;;;;6.22;2.33;;;16.00;70.40;;;;;;2362905;56;21035;-74
2022/06/02 09:41:43;;;;;;;6.12;2.17;;;16.10;69.60;;;;;;2374479;56;21074;-74
2022/06/02 09:44:22;;;;;;;4.28;2.35;;;16.10;68.80;;;;;;2375381;56;21043;-74
2022/06/02 09:47:21;;;;;;;7.60;2.75;;;16.10;68.60;;;;;;2374943;56;21644;-75
2022/06/02 09:50:16;;;;;;;6.00;2.20;;;16.10;68.30;;;;;;2375550;56;21178;-74
2022/06/02 09:53:15;;;;;;;5.87;2.50;;;16.00;68.30;;;;;;2375311;56;21059;-74
2022/06/02 09:56:03;;;;;;;7.75;2.95;;;15.90;68.80;;;;;;2324123;56;21051;-74
2022/06/02 09:58:47;;;;;;;6.22;2.70;;;15.90;69.60;;;;;;2373968;56;21035;-74
2022/06/02 10:01:47;;;;;;;8.65;3.30;;;15.90;70.30;;;;;;2375485;56;21035;-74
2022/06/02 10:04:34;;;;;;;4.50;2.35;;;15.90;70.50;;;;;;2375427;56;21039;-74
2022/06/02 10:07:38;;;;;;;6.30;3.00;;;15.90;71.00;;;;;;2364214;54;21550;-75
2022/06/02 10:10:47;;;;;;;5.03;2.20;;;15.90;71.10;;;;;;2278113;59;21061;-75
2022/06/02 10:16:54;;;;;;;4.10;2.53;;;15.80;70.40;;;;;;2335559;57;38765;-76
2022/06/02 10:20:09;;;;;;;5.87;2.20;;;15.80;71.60;;;;;;2371374;56;21051;-76
2022/06/02 10:22:46;;;;;;;5.15;2.35;;;15.90;71.00;;;;;;2398799;52;22160;-76
2022/06/02 10:29:09;;;;;;;8.25;2.67;;;16.10;71.00;;;;;;2340137;57;22657;-75
2022/06/02 10:32:25;;;;;;;4.57;2.30;;;16.20;71.30;;;;;;2419565;53;21041;-76
2022/06/02 10:35:40;;;;;;;4.95;2.17;;;16.40;71.70;;;;;;2336456;57;21106;-76
2022/06/02 10:38:25;;;;;;;4.40;2.10;;;16.50;69.90;;;;;;2329983;57;21046;-76
2022/06/02 10:41:11;;;;;;;5.57;2.60;;;16.50;67.70;;;;;;2371202;53;21110;-76
2022/06/02 10:47:25;;;;;;;6.07;1.98;;;16.60;68.10;;;;;;2376231;53;22090;-75
2022/06/02 10:50:11;;;;;;;5.18;2.67;;;16.60;68.60;;;;;;2336670;54;21326;-75
2022/06/02 10:53:29;;;;;;;5.15;2.15;;;16.70;67.60;;;;;;2319737;58;21132;-74
2022/06/02 10:56:36;;;;;;;7.50;2.60;;;16.80;67.50;;;;;;2319378;58;21107;-75
2022/06/02 10:59:42;;;;;;;5.15;2.55;;;16.80;67.60;;;;;;2318036;58;21063;-75
2022/06/02 11:02:53;;;;;;;6.12;2.30;;;16.90;66.90;;;;;;2317860;58;21581;-76
2022/06/02 11:05:49;;;;;;;5.87;2.17;;;17.00;66.80;;;;;;2319072;58;21051;-75
2022/06/02 11:12:01;;;;;;;4.40;1.98;;;17.10;66.20;;;;;;2353995;57;22548;-75
2022/06/02 11:15:01;;;;;;;8.23;2.12;;;17.20;67.20;;;;;;2348067;53;21129;-75
2022/06/02 11:18:06;;;;;;;8.00;2.35;;;17.20;65.20;;;;;;2348308;56;21548;-75
2022/06/02 11:21:19;;;;;;;6.93;1.70;;;17.20;65.00;;;;;;2378935;52;21043;-74
2022/06/02 11:24:09;;;;;;;4.57;1.73;;;17.30;65.50;;;;;;2369781;55;22254;-75
2022/06/02 11:27:05;;;;;;;6.28;2.12;;;17.30;64.40;;;;;;2372991;56;21054;-75
2022/06/02 11:30:13;;;;;;;3.70;1.92;;;17.40;64.20;;;;;;2373510;56;21122;-76
2022/06/02 11:33:19;;;;;;;3.47;1.73;;;17.40;63.60;;;;;;2373676;56;21102;-76
2022/06/02 11:36:08;;;;;;;6.87;1.90;;;17.40;63.30;;;;;;2373494;56;21123;-76
2022/06/02 11:39:35;;;;;;;13.43;2.05;;;17.50;64.00;;;;;;2373604;56;21043;-75
2022/06/02 11:42:18;;;;;;;5.15;2.00;;;17.60;63.70;;;;;;2373431;56;21052;-75
2022/06/02 11:44:55;;;;;;;3.20;1.60;;;17.70;62.80;;;;;;2448568;52;21557;-75
2022/06/02 11:47:46;;;;;;;5.30;1.80;;;17.90;62.50;;;;;;2373872;56;21042;-75
2022/06/02 11:50:39;;;;;;;3.05;1.98;;;17.90;62.40;;;;;;2373517;56;21120;-75
2022/06/02 11:53:54;;;;;;;4.65;1.73;;;18.00;62.10;;;;;;2395385;52;21038;-75
2022/06/02 11:56:36;;;;;;;4.15;1.70;;;18.00;61.00;;;;;;2367835;56;21094;-75
2022/06/02 12:03:15;;;;;;;2.53;1.60;;;18.00;60.80;;;;;;2327629;57;22637;-75
2022/06/02 12:06:18;;;;;;;6.22;1.83;;;18.10;60.70;;;;;;2346009;57;21030;-75
2022/06/02 12:09:13;;;;;;;6.32;2.17;;;18.10;60.60;;;;;;2381822;53;21034;-75
2022/06/02 12:15:25;;;;;;;4.55;1.77;;;18.20;58.90;;;;;;2380051;53;22599;-75
2022/06/02 12:18:16;;;;;;;2.60;1.70;;;18.10;58.10;;;;;;2326860;56;21122;-74
2022/06/02 12:21:31;;;;;;;3.95;1.52;;;18.10;57.80;;;;;;2373575;56;21039;-75
2022/06/02 12:24:19;;;;;;;9.23;2.15;;;18.10;57.40;;;;;;2373836;56;21058;-75
2022/06/02 12:27:03;;;;;;;5.45;1.70;;;17.90;57.00;;;;;;2374295;52;21074;-76
2022/06/02 12:29:44;;;;;;;5.95;1.80;;;17.90;57.50;;;;;;2393194;52;21105;-76
2022/06/02 12:32:44;;;;;;;3.70;1.83;;;18.00;57.90;;;;;;2374080;56;21117;-76
2022/06/02 12:35:43;;;;;;;4.90;1.90;;;18.10;58.50;;;;;;2357546;56;21063;-76
2022/06/02 12:42:29;;;;;;;4.85;1.73;;;18.10;57.40;;;;;;2437479;53;22607;-75
2022/06/02 12:47:53;;;;;;;5.15;1.75;;;18.20;59.00;;;;;;2350485;57;22540;-75
2022/06/02 12:50:42;;;;;;;3.75;2.08;;;18.40;57.50;;;;;;2345693;57;21053;-75
2022/06/02 12:53:42;;;;;;;4.30;2.03;;;18.40;56.80;;;;;;2346582;57;21034;-74
2022/06/02 12:56:46;;;;;;;3.83;1.77;;;18.50;57.20;;;;;;2347096;57;21081;-76
2022/06/02 13:00:03;;;;;;;2.00;1.40;;;18.70;57.40;;;;;;2347313;57;21037;-75
2022/06/02 13:02:55;;;;;;;3.47;1.92;;;18.80;57.20;;;;;;2324655;57;21048;-75
2022/06/02 13:06:10;;;;;;;5.12;2.00;;;18.90;56.30;;;;;;2346564;57;21149;-75
2022/06/02 13:09:30;;;;;;;4.70;1.70;;;18.90;56.30;;;;;;2334265;57;21117;-74
2022/06/02 13:12:17;;;;;;;3.95;1.70;;;19.00;56.10;;;;;;2325319;55;21187;-74
2022/06/02 13:15:13;;;;;;;5.82;1.52;;;18.90;56.10;;;;;;2347313;57;21109;-75
2022/06/02 13:18:00;;;;;;;3.53;1.98;;;18.90;55.80;;;;;;2347025;57;21633;-74
2022/06/02 13:20:53;;;;;;;6.18;1.83;;;18.80;55.30;;;;;;2387789;53;21021;-76
2022/06/02 13:24:13;;;;;;;6.78;1.52;;;18.70;55.80;;;;;;2362260;53;21050;-76
2022/06/02 13:27:04;;;;;;;5.45;1.83;;;18.70;55.20;;;;;;2346996;57;21061;-75
2022/06/02 13:30:31;;;;;;;5.72;2.33;;;18.90;56.60;;;;;;2419946;53;21042;-77
2022/06/02 13:36:32;;;;;;;5.72;1.70;;;19.00;56.60;;;;;;2355206;57;22078;-75
2022/06/02 13:39:55;;;;;;;2.92;1.60;;;19.10;54.90;;;;;;2366829;56;21305;-75
2022/06/02 13:43:25;;;;;;;4.05;2.03;;;19.10;54.40;;;;;;2428670;52;21097;-75
2022/06/02 13:46:28;;;;;;;4.20;1.52;;;19.10;54.30;;;;;;2247690;59;21062;-75
2022/06/02 13:49:52;;;;;;;5.43;2.00;;;19.10;54.40;;;;;;2374940;56;21109;-77
2022/06/02 13:52:50;;;;;;;10.55;1.80;;;19.20;54.40;;;;;;2374531;56;21042;-74
2022/06/02 13:59:28;;;;;;;4.35;1.73;;;19.40;54.20;;;;;;2219344;57;21655;-75
2022/06/02 14:02:50;;;;;;;5.47;1.60;;;19.50;53.80;;;;;;2374504;56;21023;-75
2022/06/02 14:05:39;;;;;;;12.45;2.08;;;19.60;53.30;;;;;;2304735;56;21601;-74
2022/06/02 14:08:41;;;;;;;5.00;1.55;;;19.60;52.80;;;;;;2374599;56;21035;-75
2022/06/02 14:11:26;;;;;;;5.43;1.75;;;19.70;53.40;;;;;;2375205;56;21090;-76
2022/06/02 14:14:27;;;;;;;5.10;1.40;;;19.70;53.00;;;;;;2374252;56;21067;-76
2022/06/02 14:17:05;;;;;;;3.30;1.42;;;19.70;52.50;;;;;;2374184;56;21043;-76
2022/06/02 14:20:12;;;;;;;2.95;1.60;;;19.60;52.90;;;;;;2374304;56;21044;-76
2022/06/02 14:22:57;;;;;;;7.45;2.00;;;19.70;53.10;;;;;;2484366;52;21118;-75
2022/06/02 14:25:34;;;;;;;5.05;1.42;;;19.70;52.90;;;;;;2374574;56;21384;-75
2022/06/02 14:28:21;;;;;;;5.00;1.77;;;19.80;53.10;;;;;;2374992;56;21046;-75
2022/06/02 14:30:56;;;;;;;5.20;1.50;;;19.70;52.40;;;;;;2374522;56;21082;-75
2022/06/02 14:33:29;;;;;;;5.62;1.83;;;19.70;52.50;;;;;;2462207;52;21046;-75
2022/06/02 14:36:02;;;;;;;4.73;1.77;;;19.80;53.40;;;;;;2375015;56;21023;-76
2022/06/02 14:38:50;;;;;;;4.95;1.90;;;19.90;53.00;;;;;;2374044;56;21039;-75
2022/06/02 14:41:25;;;;;;;4.95;1.73;;;19.90;53.10;;;;;;2375118;56;21089;-76
2022/06/02 14:44:14;;;;;;;4.35;1.87;;;20.10;53.70;;;;;;2374709;56;21062;-75
2022/06/02 14:46:54;;;;;;;6.75;2.33;;;20.20;53.00;;;;;;2373492;56;21114;-76
2022/06/02 14:49:56;;;;;;;4.90;1.50;;;20.00;51.80;;;;;;2373571;56;21126;-76
2022/06/02 14:52:52;;;;;;;7.32;1.80;;;20.00;52.30;;;;;;2346357;56;21127;-76
2022/06/02 14:55:26;;;;;;;5.18;1.90;;;19.90;51.50;;;;;;2373344;56;21043;-76
2022/06/02 14:58:06;;;;;;;5.00;1.67;;;19.80;51.20;;;;;;2374152;56;21106;-75
2022/06/02 15:00:49;;;;;;;5.93;1.77;;;19.80;51.50;;;;;;2373330;56;21079;-75
2022/06/02 15:03:48;;;;;;;4.97;1.70;;;19.70;52.10;;;;;;2373343;56;22185;-75
2022/06/02 15:06:32;;;;;;;3.70;1.33;;;19.60;52.10;;;;;;2373439;56;21050;-75
2022/06/02 15:09:20;;;;;;;3.83;1.77;;;19.60;51.90;;;;;;2381088;52;21070;-75
2022/06/02 15:12:06;;;;;;;4.30;1.70;;;19.60;51.90;;;;;;2373730;56;21050;-75
2022/06/02 15:14:54;;;;;;;3.55;1.50;;;19.70;52.50;;;;;;2387869;52;21422;-76
2022/06/02 15:17:44;;;;;;;4.03;1.48;;;19.70;52.50;;;;;;2397027;52;21035;-75
2022/06/02 15:20:30;;;;;;;3.65;1.58;;;19.90;52.30;;;;;;2415814;52;21031;-75
2022/06/02 15:23:42;;;;;;;3.47;1.92;;;19.80;51.60;;;;;;2373684;56;21181;-75
2022/06/02 15:26:22;;;;;;;4.37;1.40;;;19.90;52.00;;;;;;2373345;56;21028;-77
2022/06/02 15:29:12;;;;;;;2.80;1.55;;;20.00;51.80;;;;;;2373866;56;21553;-76
2022/06/02 15:31:50;;;;;;;4.62;1.58;;;20.00;51.80;;;;;;2374146;52;21046;-77
2022/06/02 15:34:48;;;;;;;3.15;1.42;;;20.00;50.00;;;;;;2373832;56;21055;-76
2022/06/02 15:37:52;;;;;;;4.20;1.42;;;20.10;50.50;;;;;;2372885;56;21113;-76
2022/06/02 15:40:56;;;;;;;4.28;1.52;;;20.20;50.50;;;;;;2372824;56;21131;-74
2022/06/02 15:47:11;;;;;;;5.62;1.90;;;20.20;51.70;;;;;;2307428;57;27842;-76